Time;durP1;ratioP1;P1;durP2;ratioP2;P2;SDS_P1;SDS_P2;PMS_P1;PMS_P2;Temp;Humidity;BMP_temperature;BMP_pressure;BME280_temperature;BME280_humidity;BME280_pressure;Samples;Min_cycle;Max_cycle;Signal;HPM_P1;HPM_P2
2023/07/10 00:02:12;;;;;;;7.83;6.23;;;23.50;99.90;;;;;;5072220;28;20160;-43
2023/07/10 00:04:37;;;;;;;8.33;5.60;;;23.50;99.90;;;;;;5054934;28;20177;-43
2023/07/10 00:07:03;;;;;;;6.50;5.90;;;23.50;99.90;;;;;;5055287;28;20237;-43
2023/07/10 00:09:29;;;;;;;9.17;5.80;;;23.60;99.90;;;;;;5055923;28;20564;-43
2023/07/10 00:11:55;;;;;;;13.33;7.07;;;23.50;99.90;;;;;;5057118;28;20192;-46
2023/07/10 00:14:23;;;;;;;10.50;7.20;;;23.50;99.90;;;;;;5057836;28;20332;-43
2023/07/10 00:16:51;;;;;;;9.30;6.80;;;23.50;99.90;;;;;;5075517;28;20179;-43
2023/07/10 00:19:17;;;;;;;9.73;6.40;;;23.50;99.90;;;;;;5075697;28;20533;-43
2023/07/10 00:21:43;;;;;;;9.63;6.93;;;23.50;99.90;;;;;;5060881;28;20161;-45
2023/07/10 00:24:09;;;;;;;9.67;5.40;;;23.50;99.90;;;;;;5060636;28;20242;-44
2023/07/10 00:26:37;;;;;;;11.07;5.50;;;23.40;99.90;;;;;;5077046;28;20634;-44
2023/07/10 00:29:22;;;;;;;8.13;5.35;;;23.40;99.90;;;;;;5077802;28;20172;-43
2023/07/10 00:31:47;;;;;;;7.80;4.67;;;23.40;99.90;;;;;;5060146;28;20179;-43
2023/07/10 00:34:15;;;;;;;8.47;4.90;;;23.40;99.90;;;;;;5059140;28;20315;-43
2023/07/10 00:36:47;;;;;;;8.70;5.17;;;23.40;99.90;;;;;;5060152;28;20169;-44
2023/07/10 00:39:28;;;;;;;7.63;4.77;;;23.30;99.90;;;;;;5077628;28;20164;-44
2023/07/10 00:42:02;;;;;;;9.97;6.63;;;23.30;99.90;;;;;;5060145;28;20181;-44
2023/07/10 00:44:38;;;;;;;12.60;8.80;;;23.40;99.90;;;;;;5059785;28;20649;-47
2023/07/10 00:47:13;;;;;;;11.77;8.20;;;23.40;99.90;;;;;;5059069;28;20207;-43
2023/07/10 00:50:08;;;;;;;9.93;8.30;;;23.30;99.90;;;;;;5060369;28;20206;-43
2023/07/10 00:52:46;;;;;;;6.87;6.07;;;23.40;99.90;;;;;;5060678;28;20176;-43
2023/07/10 00:55:33;;;;;;;8.90;6.83;;;23.30;99.90;;;;;;5061337;28;20622;-48
2023/07/10 00:58:21;;;;;;;7.20;5.70;;;23.30;99.90;;;;;;5078155;28;20173;-43
2023/07/10 01:01:03;;;;;;;10.57;7.63;;;23.30;99.90;;;;;;5060560;28;20199;-48
2023/07/10 01:03:29;;;;;;;9.20;7.53;;;23.30;99.90;;;;;;5060926;28;20216;-43
2023/07/10 01:05:57;;;;;;;10.33;8.17;;;23.30;99.90;;;;;;5060259;28;20554;-44
2023/07/10 01:08:26;;;;;;;7.70;5.43;;;23.30;99.90;;;;;;5059946;28;20491;-43
2023/07/10 01:10:52;;;;;;;8.07;7.27;;;23.30;99.90;;;;;;5077602;28;20165;-44
2023/07/10 01:13:18;;;;;;;13.63;9.93;;;23.30;99.90;;;;;;5060053;28;20283;-46
2023/07/10 01:15:43;;;;;;;9.23;8.20;;;23.30;99.90;;;;;;5059872;28;20216;-43
2023/07/10 01:18:11;;;;;;;11.70;9.97;;;23.30;99.90;;;;;;5059564;28;20590;-43
2023/07/10 01:20:51;;;;;;;11.70;10.70;;;23.30;99.90;;;;;;5059197;28;20153;-44
2023/07/10 01:23:18;;;;;;;10.33;9.33;;;23.30;99.90;;;;;;5060201;28;20184;-44
2023/07/10 01:25:53;;;;;;;10.80;9.70;;;23.20;99.90;;;;;;5077147;28;20180;-45
2023/07/10 01:28:21;;;;;;;8.10;7.30;;;23.20;99.90;;;;;;5060330;28;20179;-43
2023/07/10 01:30:49;;;;;;;7.30;6.30;;;23.20;99.90;;;;;;5077700;28;20199;-44
2023/07/10 01:33:23;;;;;;;9.80;6.43;;;23.20;99.90;;;;;;5062898;28;20208;-43
2023/07/10 01:35:53;;;;;;;9.00;7.40;;;23.20;99.90;;;;;;5080265;28;20199;-43
2023/07/10 01:38:19;;;;;;;7.43;6.63;;;23.20;99.90;;;;;;5097159;28;20172;-45
2023/07/10 01:40:50;;;;;;;10.77;7.90;;;23.20;99.90;;;;;;5080172;28;20172;-46
2023/07/10 01:43:16;;;;;;;9.70;8.27;;;23.20;99.90;;;;;;5080318;28;20204;-44
2023/07/10 01:45:44;;;;;;;9.00;8.17;;;23.20;99.90;;;;;;5080309;28;20171;-43
2023/07/10 01:48:12;;;;;;;10.63;9.73;;;23.20;99.90;;;;;;5080276;28;20530;-47
2023/07/10 01:50:39;;;;;;;11.80;10.70;;;23.10;99.90;;;;;;5079973;28;20544;-44
2023/07/10 01:53:07;;;;;;;14.07;12.67;;;23.10;99.90;;;;;;5080353;28;20518;-44
2023/07/10 01:55:38;;;;;;;13.43;12.20;;;23.20;99.90;;;;;;5080125;28;20200;-44
2023/07/10 01:58:04;;;;;;;9.23;8.33;;;23.10;99.90;;;;;;5079789;28;20176;-46
2023/07/10 02:00:30;;;;;;;7.97;6.93;;;23.00;99.90;;;;;;5097241;28;20171;-44
2023/07/10 02:02:55;;;;;;;10.23;7.07;;;22.90;99.90;;;;;;5079960;28;20164;-44
2023/07/10 02:05:21;;;;;;;7.87;7.10;;;22.70;99.90;;;;;;5097013;28;20164;-46
2023/07/10 02:07:47;;;;;;;8.87;5.97;;;22.40;99.90;;;;;;5079008;28;20175;-44
2023/07/10 02:10:12;;;;;;;7.30;6.60;;;22.40;99.90;;;;;;5097146;28;20164;-42
2023/07/10 02:12:38;;;;;;;10.30;9.40;;;22.60;99.90;;;;;;5079579;28;20382;-43
2023/07/10 02:15:04;;;;;;;10.93;9.13;;;22.70;99.90;;;;;;5097065;28;20578;-46
2023/07/10 02:17:30;;;;;;;15.57;14.20;;;22.70;99.90;;;;;;5079665;28;20179;-43
2023/07/10 02:19:56;;;;;;;10.53;7.40;;;22.80;99.90;;;;;;5097651;28;20172;-46
2023/07/10 02:22:21;;;;;;;5.17;4.73;;;22.80;99.90;;;;;;5078782;28;20174;-46
2023/07/10 02:24:47;;;;;;;9.47;6.40;;;22.90;99.90;;;;;;5079011;28;20171;-43
2023/07/10 02:27:12;;;;;;;7.73;7.13;;;22.90;99.90;;;;;;5079247;28;20180;-44
2023/07/10 02:29:38;;;;;;;19.43;18.00;;;22.90;99.90;;;;;;5079423;28;20240;-44
2023/07/10 02:32:04;;;;;;;19.87;18.47;;;22.90;99.90;;;;;;5079113;28;20183;-45
2023/07/10 02:34:30;;;;;;;11.83;9.70;;;22.90;99.90;;;;;;5100069;28;20697;-43
2023/07/10 02:36:55;;;;;;;22.20;20.90;;;22.90;99.90;;;;;;5100958;28;20207;-43
2023/07/10 02:39:21;;;;;;;25.70;24.10;;;22.90;99.90;;;;;;5083891;28;20555;-43
2023/07/10 02:41:47;;;;;;;41.13;38.53;;;22.90;99.90;;;;;;5084075;28;20710;-43
2023/07/10 02:44:12;;;;;;;37.13;34.53;;;22.80;99.90;;;;;;5083557;28;20183;-43
2023/07/10 02:46:38;;;;;;;17.37;16.30;;;22.80;99.90;;;;;;5083032;28;20191;-43
2023/07/10 02:49:04;;;;;;;8.67;7.07;;;22.70;99.90;;;;;;5083445;28;20522;-45
2023/07/10 02:51:29;;;;;;;8.30;6.90;;;22.70;99.90;;;;;;5083442;28;20172;-43
2023/07/10 02:53:55;;;;;;;9.00;7.20;;;22.70;99.90;;;;;;5082536;28;20294;-45
2023/07/10 02:56:21;;;;;;;8.40;7.20;;;22.70;99.90;;;;;;5082696;28;20187;-44
2023/07/10 02:58:51;;;;;;;10.80;7.33;;;22.70;99.90;;;;;;5082517;28;20164;-45
2023/07/10 03:01:17;;;;;;;9.60;8.50;;;22.70;99.90;;;;;;5083054;28;20233;-43
2023/07/10 03:03:45;;;;;;;9.23;8.53;;;22.70;99.90;;;;;;5082628;28;20168;-44
2023/07/10 03:09:32;;;;;;;6.73;5.73;;;22.50;99.90;;;;;;5100321;28;20200;-43
2023/07/10 03:11:58;;;;;;;6.77;6.07;;;22.40;99.90;;;;;;5082720;28;20172;-44
2023/07/10 03:14:23;;;;;;;9.10;7.90;;;22.40;99.90;;;;;;5083015;28;20196;-43
2023/07/10 03:16:49;;;;;;;16.23;14.93;;;22.50;99.90;;;;;;5081978;28;20190;-44
2023/07/10 03:19:14;;;;;;;10.87;9.77;;;22.60;99.90;;;;;;5098969;28;20178;-43
2023/07/10 03:21:40;;;;;;;12.33;11.33;;;22.60;99.90;;;;;;5078537;28;20168;-46
2023/07/10 03:24:06;;;;;;;10.67;8.67;;;22.60;99.90;;;;;;5078327;28;20168;-44
2023/07/10 03:26:32;;;;;;;13.40;12.13;;;22.60;99.90;;;;;;5078497;28;20274;-46
2023/07/10 03:29:10;;;;;;;12.47;11.27;;;22.50;99.90;;;;;;5096091;28;20177;-46
2023/07/10 03:31:36;;;;;;;17.27;15.93;;;22.30;99.90;;;;;;5077691;28;20172;-43
2023/07/10 03:34:02;;;;;;;18.00;16.40;;;22.20;99.90;;;;;;5095934;28;20227;-45
2023/07/10 03:36:29;;;;;;;10.40;9.33;;;22.20;99.90;;;;;;5095893;28;20180;-44
2023/07/10 03:38:54;;;;;;;9.27;8.33;;;22.20;99.90;;;;;;5078988;28;20229;-44
2023/07/10 03:41:21;;;;;;;11.70;10.63;;;22.10;99.90;;;;;;5077572;28;20188;-45
2023/07/10 03:43:48;;;;;;;9.13;8.23;;;22.20;99.90;;;;;;5096272;28;20207;-44
2023/07/10 03:46:15;;;;;;;12.20;10.87;;;22.30;99.90;;;;;;5096391;28;20188;-44
2023/07/10 03:48:41;;;;;;;9.27;8.27;;;22.30;99.90;;;;;;5095254;28;20233;-44
2023/07/10 03:51:07;;;;;;;12.23;7.63;;;22.30;99.90;;;;;;5094646;28;20225;-43
2023/07/10 03:53:32;;;;;;;14.03;9.10;;;22.30;99.90;;;;;;5076067;28;20172;-44
2023/07/10 03:55:58;;;;;;;9.63;8.63;;;22.30;99.90;;;;;;5075608;28;20265;-46
2023/07/10 03:58:28;;;;;;;11.27;10.37;;;22.30;99.90;;;;;;5075067;28;20175;-44
2023/07/10 04:00:55;;;;;;;11.77;10.70;;;22.10;99.90;;;;;;5092624;28;20168;-44
2023/07/10 04:03:24;;;;;;;10.30;9.10;;;22.10;99.90;;;;;;5092710;28;20560;-43
2023/07/10 04:05:52;;;;;;;15.83;14.27;;;22.10;99.90;;;;;;5093237;28;20434;-43
2023/07/10 04:08:21;;;;;;;10.97;10.07;;;22.20;99.90;;;;;;5074644;28;20176;-46
2023/07/10 04:10:52;;;;;;;10.70;7.50;;;22.30;99.90;;;;;;5074740;28;20171;-43
2023/07/10 04:13:18;;;;;;;9.70;8.27;;;22.30;99.90;;;;;;5093361;28;20180;-48
2023/07/10 04:15:57;;;;;;;9.63;8.73;;;22.30;99.90;;;;;;5075438;28;20211;-43
2023/07/10 04:18:23;;;;;;;9.87;9.07;;;22.30;99.90;;;;;;5074305;28;20188;-43
2023/07/10 04:20:49;;;;;;;8.97;8.17;;;22.30;99.90;;;;;;5077626;28;20168;-44
2023/07/10 04:23:15;;;;;;;39.23;36.87;;;22.40;99.90;;;;;;5096526;28;20470;-43
2023/07/10 04:25:42;;;;;;;30.10;28.30;;;22.40;99.90;;;;;;5080181;28;20171;-45
2023/07/10 04:28:08;;;;;;;20.60;19.07;;;22.40;99.90;;;;;;5080165;28;20263;-45
2023/07/10 04:30:34;;;;;;;12.97;11.70;;;22.40;99.90;;;;;;5080959;28;20262;-43
2023/07/10 04:33:00;;;;;;;14.67;13.53;;;22.40;99.90;;;;;;5078998;28;20168;-46
2023/07/10 04:35:25;;;;;;;15.13;13.97;;;22.30;99.90;;;;;;5079989;28;20580;-47
2023/07/10 04:37:51;;;;;;;15.63;14.43;;;22.30;99.90;;;;;;5080340;28;20168;-42
2023/07/10 04:40:17;;;;;;;14.40;13.37;;;22.30;99.90;;;;;;5080048;28;20160;-45
2023/07/10 04:42:42;;;;;;;12.30;11.03;;;22.30;99.90;;;;;;5078955;28;20234;-43
2023/07/10 04:45:08;;;;;;;23.63;21.93;;;22.40;99.90;;;;;;5078550;28;20207;-44
2023/07/10 04:47:34;;;;;;;27.50;25.77;;;22.40;99.90;;;;;;5078927;28;20259;-44
2023/07/10 04:50:00;;;;;;;26.07;24.47;;;22.40;99.90;;;;;;5078514;28;20262;-44
2023/07/10 04:52:25;;;;;;;18.47;17.27;;;22.40;99.90;;;;;;5078925;28;20176;-46
2023/07/10 04:54:51;;;;;;;29.47;27.43;;;22.50;99.90;;;;;;5096545;28;20203;-45
2023/07/10 04:57:17;;;;;;;15.53;14.40;;;22.50;99.90;;;;;;5079612;28;20176;-44
2023/07/10 04:59:45;;;;;;;16.50;15.30;;;22.50;99.90;;;;;;5080105;28;20164;-44
2023/07/10 05:02:10;;;;;;;15.67;14.40;;;22.50;99.90;;;;;;5078809;28;20723;-43
2023/07/10 05:04:36;;;;;;;20.63;19.30;;;22.50;99.90;;;;;;5080327;28;20788;-45
2023/07/10 05:07:03;;;;;;;25.23;23.60;;;22.50;99.90;;;;;;5079833;28;20163;-44
2023/07/10 05:09:29;;;;;;;16.77;15.73;;;22.50;99.90;;;;;;5077996;28;20172;-48
2023/07/10 05:11:55;;;;;;;19.10;17.43;;;22.60;99.90;;;;;;5077548;28;20175;-43
2023/07/10 05:14:21;;;;;;;13.70;12.60;;;22.60;99.90;;;;;;5076893;28;20268;-44
2023/07/10 05:16:47;;;;;;;12.37;11.37;;;22.60;99.90;;;;;;5094145;28;20172;-43
2023/07/10 05:19:12;;;;;;;16.50;15.33;;;22.60;99.90;;;;;;5093369;28;20183;-43
2023/07/10 05:21:38;;;;;;;15.27;14.00;;;22.50;99.90;;;;;;5076134;28;20237;-44
2023/07/10 05:24:04;;;;;;;13.50;12.07;;;22.50;99.90;;;;;;5077786;28;20168;-45
2023/07/10 05:26:29;;;;;;;19.03;17.60;;;22.50;99.90;;;;;;5077491;28;20240;-43
2023/07/10 05:28:55;;;;;;;26.90;25.10;;;22.50;99.90;;;;;;5077995;28;20183;-44
2023/07/10 05:31:20;;;;;;;28.47;26.27;;;22.50;99.90;;;;;;5078371;28;20179;-43
2023/07/10 05:33:47;;;;;;;15.27;14.07;;;22.50;99.90;;;;;;5078440;28;20326;-42
2023/07/10 05:36:16;;;;;;;23.67;21.90;;;22.50;99.90;;;;;;5097677;28;20270;-46
2023/07/10 05:38:47;;;;;;;23.77;22.20;;;22.50;99.90;;;;;;5079778;28;20197;-48
2023/07/10 05:41:12;;;;;;;18.90;17.60;;;22.50;99.90;;;;;;5079428;28;20176;-43
2023/07/10 05:43:38;;;;;;;23.57;22.03;;;22.60;99.90;;;;;;5079518;28;20638;-44
2023/07/10 05:46:04;;;;;;;29.03;26.83;;;22.60;99.90;;;;;;5079232;28;20175;-44
2023/07/10 05:48:30;;;;;;;41.67;38.93;;;22.70;99.90;;;;;;5078814;28;20176;-43
2023/07/10 05:50:56;;;;;;;16.07;14.70;;;22.50;99.90;;;;;;5078779;28;20182;-46
2023/07/10 05:53:22;;;;;;;20.17;18.57;;;22.60;99.90;;;;;;5077577;28;20176;-43
2023/07/10 05:55:53;;;;;;;33.33;31.20;;;22.70;99.90;;;;;;5077470;28;20196;-48
2023/07/10 05:58:21;;;;;;;47.70;44.83;;;22.70;99.90;;;;;;5093684;28;20233;-44
2023/07/10 06:00:48;;;;;;;35.07;32.93;;;22.50;99.90;;;;;;5072421;28;20164;-43
2023/07/10 06:03:14;;;;;;;36.43;34.00;;;22.60;99.90;;;;;;5070923;28;20256;-43
2023/07/10 06:05:40;;;;;;;27.20;25.27;;;22.70;99.90;;;;;;5071069;28;20208;-45
2023/07/10 06:08:05;;;;;;;19.27;17.73;;;22.70;99.90;;;;;;5073476;28;20258;-43
2023/07/10 06:10:36;;;;;;;26.53;24.43;;;22.80;99.90;;;;;;5072213;28;20183;-43
2023/07/10 06:13:19;;;;;;;34.10;31.63;;;22.80;99.90;;;;;;5072464;28;20184;-43
2023/07/10 06:15:48;;;;;;;39.37;36.67;;;22.70;99.90;;;;;;5070647;28;20212;-43
2023/07/10 06:18:15;;;;;;;50.17;47.27;;;22.70;99.90;;;;;;5057555;28;20561;-44
2023/07/10 06:20:40;;;;;;;53.93;50.83;;;22.80;99.90;;;;;;5074433;28;20264;-44
2023/07/10 06:23:06;;;;;;;55.33;51.93;;;22.80;99.90;;;;;;5057820;28;20325;-43
2023/07/10 06:25:32;;;;;;;46.80;44.00;;;22.80;99.90;;;;;;5057507;28;20173;-43
2023/07/10 06:27:58;;;;;;;46.90;43.93;;;22.80;99.90;;;;;;5056600;28;20485;-43
2023/07/10 06:30:24;;;;;;;55.27;52.27;;;22.80;99.90;;;;;;5056062;28;20663;-43
2023/07/10 06:32:51;;;;;;;55.20;51.80;;;22.70;99.90;;;;;;5055864;28;20176;-43
2023/07/10 06:35:17;;;;;;;37.30;34.60;;;22.80;99.90;;;;;;5038226;28;20221;-43
2023/07/10 06:37:44;;;;;;;25.20;23.50;;;22.80;99.90;;;;;;5036281;28;20188;-44
2023/07/10 06:40:15;;;;;;;19.70;18.20;;;22.80;99.90;;;;;;5038400;28;20264;-43
2023/07/10 06:42:41;;;;;;;13.60;12.50;;;22.70;99.90;;;;;;5039325;28;20199;-43
2023/07/10 06:45:09;;;;;;;16.67;15.47;;;22.60;99.90;;;;;;5055158;28;20170;-44
2023/07/10 06:47:39;;;;;;;14.13;12.93;;;22.50;99.90;;;;;;5056720;28;20427;-43
2023/07/10 06:50:06;;;;;;;13.30;12.03;;;22.40;99.90;;;;;;5038885;28;20176;-43
2023/07/10 06:52:32;;;;;;;14.43;13.13;;;22.40;99.90;;;;;;5036928;28;20204;-45
2023/07/10 06:54:58;;;;;;;21.97;20.57;;;22.40;99.90;;;;;;5036145;28;20535;-43
2023/07/10 06:57:23;;;;;;;15.50;14.20;;;22.30;99.90;;;;;;5055039;28;20467;-43
2023/07/10 06:59:49;;;;;;;14.47;13.37;;;22.30;99.90;;;;;;5038317;28;20177;-43
2023/07/10 07:02:15;;;;;;;22.43;20.50;;;22.30;99.90;;;;;;5037478;28;20170;-44
2023/07/10 07:04:41;;;;;;;27.20;25.40;;;22.20;99.90;;;;;;5037681;28;20173;-43
2023/07/10 07:07:07;;;;;;;28.57;26.40;;;22.20;99.90;;;;;;5038452;28;20197;-43
2023/07/10 07:09:33;;;;;;;29.37;27.33;;;22.10;99.90;;;;;;5056099;28;20165;-43
2023/07/10 07:11:59;;;;;;;28.27;26.27;;;22.10;99.90;;;;;;5038449;28;20197;-43
2023/07/10 07:14:26;;;;;;;32.47;30.43;;;22.00;99.90;;;;;;5056245;28;20193;-43
2023/07/10 07:16:53;;;;;;;29.67;27.70;;;22.00;99.90;;;;;;5039101;28;20191;-45
2023/07/10 07:19:18;;;;;;;30.53;28.50;;;21.80;99.90;;;;;;5037526;28;20173;-42
2023/07/10 07:21:44;;;;;;;21.20;19.60;;;21.70;99.90;;;;;;5055853;28;20176;-45
2023/07/10 07:24:10;;;;;;;17.90;16.10;;;21.60;99.90;;;;;;5037430;28;20184;-43
2023/07/10 07:26:36;;;;;;;18.87;17.27;;;21.60;99.90;;;;;;5054860;28;20811;-45
2023/07/10 07:29:01;;;;;;;23.87;22.03;;;21.70;99.90;;;;;;5037443;28;20177;-42
2023/07/10 07:31:27;;;;;;;31.70;29.37;;;21.70;99.90;;;;;;5037981;28;20181;-44
2023/07/10 07:33:54;;;;;;;25.77;23.87;;;21.70;99.90;;;;;;5062883;28;20217;-44
2023/07/10 07:36:20;;;;;;;30.33;28.10;;;21.80;99.90;;;;;;5056848;28;20481;-43
2023/07/10 07:38:46;;;;;;;35.47;33.17;;;21.80;99.90;;;;;;5074484;28;20171;-45
2023/07/10 07:41:13;;;;;;;25.43;23.73;;;21.70;99.90;;;;;;5057479;28;20188;-43
2023/07/10 07:43:38;;;;;;;33.00;30.60;;;21.80;99.90;;;;;;5075187;28;20561;-42
2023/07/10 07:46:04;;;;;;;32.57;30.30;;;21.80;99.90;;;;;;5058791;28;20160;-45
2023/07/10 07:48:30;;;;;;;36.63;34.47;;;21.80;99.90;;;;;;5076018;28;20188;-44
2023/07/10 07:50:58;;;;;;;33.53;31.33;;;21.80;99.90;;;;;;5059448;28;20176;-45
2023/07/10 07:53:24;;;;;;;33.07;30.93;;;21.70;99.90;;;;;;5078767;28;20459;-44
2023/07/10 07:55:50;;;;;;;32.57;30.43;;;21.80;99.90;;;;;;5060965;28;20199;-43
2023/07/10 07:58:16;;;;;;;39.30;36.67;;;21.90;99.90;;;;;;5059899;28;20438;-45
2023/07/10 08:00:42;;;;;;;31.63;29.50;;;21.90;99.90;;;;;;5060539;28;20161;-44
2023/07/10 08:03:10;;;;;;;35.90;33.47;;;22.00;99.90;;;;;;5059538;28;20169;-44
2023/07/10 08:05:35;;;;;;;25.93;24.13;;;22.00;99.90;;;;;;5059699;28;20314;-43
2023/07/10 08:08:02;;;;;;;32.53;30.57;;;22.10;99.90;;;;;;5060256;28;20275;-42
2023/07/10 08:10:35;;;;;;;30.33;27.87;;;22.10;99.90;;;;;;5059033;28;20272;-48
2023/07/10 08:13:03;;;;;;;25.40;23.80;;;22.00;99.90;;;;;;5057472;28;20199;-45
2023/07/10 08:15:29;;;;;;;26.50;24.50;;;22.00;99.90;;;;;;5057568;28;20200;-43
2023/07/10 08:17:55;;;;;;;20.37;18.60;;;22.00;99.90;;;;;;5057575;28;20165;-43
2023/07/10 08:20:20;;;;;;;18.10;16.80;;;22.00;99.90;;;;;;5058642;28;20259;-44
2023/07/10 08:22:46;;;;;;;21.57;20.03;;;21.90;99.90;;;;;;5074782;28;20169;-43
2023/07/10 08:25:12;;;;;;;21.23;19.73;;;21.90;99.90;;;;;;5058061;28;20548;-43
2023/07/10 08:27:38;;;;;;;21.10;19.33;;;21.90;99.90;;;;;;5057599;28;20191;-43
2023/07/10 08:30:04;;;;;;;22.73;20.67;;;21.90;99.90;;;;;;5073631;28;20168;-42
2023/07/10 08:32:31;;;;;;;25.33;23.33;;;21.80;99.90;;;;;;5057167;28;20757;-43
2023/07/10 08:34:57;;;;;;;29.17;26.87;;;21.80;99.90;;;;;;5040165;28;20224;-45
2023/07/10 08:37:22;;;;;;;26.10;24.30;;;21.90;99.90;;;;;;5036725;28;20455;-47
2023/07/10 08:39:50;;;;;;;25.47;23.90;;;21.90;99.90;;;;;;5034835;28;20184;-42
2023/07/10 08:42:22;;;;;;;27.43;25.60;;;21.90;99.90;;;;;;5035279;28;20280;-44
2023/07/10 08:44:53;;;;;;;27.20;25.23;;;22.00;99.90;;;;;;5018415;28;20482;-44
2023/07/10 08:47:24;;;;;;;25.43;23.50;;;22.00;99.90;;;;;;5034124;28;20266;-46
2023/07/10 08:50:06;;;;;;;28.47;26.10;;;21.90;99.90;;;;;;5035336;28;20193;-43
2023/07/10 08:52:38;;;;;;;28.10;26.03;;;21.90;99.90;;;;;;5035282;28;20185;-44
2023/07/10 08:55:12;;;;;;;22.50;20.80;;;22.00;99.90;;;;;;5036522;28;20197;-44
2023/07/10 08:57:47;;;;;;;23.30;21.37;;;22.00;99.90;;;;;;5019772;28;20185;-42
2023/07/10 09:00:15;;;;;;;19.20;17.47;;;22.10;99.90;;;;;;5035656;28;20220;-43
2023/07/10 09:02:51;;;;;;;21.03;19.30;;;22.10;99.90;;;;;;5052138;28;20165;-42
2023/07/10 09:05:22;;;;;;;21.27;19.40;;;22.10;99.90;;;;;;5051661;28;20200;-42
2023/07/10 09:07:49;;;;;;;20.87;18.80;;;22.10;99.90;;;;;;5017093;28;20177;-44
2023/07/10 09:10:26;;;;;;;15.97;14.20;;;22.20;99.90;;;;;;5034488;28;20216;-42
2023/07/10 09:12:56;;;;;;;15.87;14.57;;;22.20;99.90;;;;;;5020164;28;20176;-46
2023/07/10 09:15:35;;;;;;;16.20;14.67;;;22.30;99.90;;;;;;5054358;28;20742;-43
2023/07/10 09:18:25;;;;;;;15.60;14.33;;;22.40;99.90;;;;;;5055496;28;20175;-43
2023/07/10 09:20:56;;;;;;;12.43;11.10;;;22.50;99.90;;;;;;5036771;28;20192;-44
2023/07/10 09:23:34;;;;;;;11.87;9.83;;;22.70;99.90;;;;;;5037370;28;20173;-44
2023/07/10 09:26:13;;;;;;;9.70;8.13;;;22.80;99.90;;;;;;5037348;28;20172;-44
2023/07/10 09:28:40;;;;;;;9.50;7.17;;;22.90;99.90;;;;;;5036133;28;20173;-44
2023/07/10 09:31:09;;;;;;;11.03;6.60;;;23.10;99.90;;;;;;5037587;28;20243;-45
2023/07/10 09:33:43;;;;;;;8.93;6.07;;;23.20;99.90;;;;;;5036972;28;20221;-45
2023/07/10 09:36:16;;;;;;;10.63;6.20;;;23.30;99.90;;;;;;5035838;28;20274;-44
2023/07/10 09:38:44;;;;;;;6.80;6.17;;;23.30;99.90;;;;;;5036062;28;20235;-44
2023/07/10 09:41:13;;;;;;;10.90;9.90;;;23.30;99.90;;;;;;5036366;28;20236;-46
2023/07/10 09:43:57;;;;;;;9.50;8.60;;;23.30;99.90;;;;;;5019337;28;20465;-43
2023/07/10 09:46:27;;;;;;;9.97;8.97;;;23.30;99.90;;;;;;5020080;28;20215;-44
2023/07/10 09:48:55;;;;;;;16.10;14.90;;;23.40;99.90;;;;;;5018014;28;20184;-44
2023/07/10 09:51:22;;;;;;;11.87;10.80;;;23.30;99.90;;;;;;5035190;28;20260;-43
2023/07/10 09:53:54;;;;;;;11.97;10.73;;;23.40;99.90;;;;;;5052602;28;20162;-44
2023/07/10 09:56:29;;;;;;;10.17;9.37;;;23.50;99.90;;;;;;5035230;28;20557;-43
2023/07/10 09:58:57;;;;;;;11.47;10.67;;;23.50;99.90;;;;;;5019473;28;20184;-44
2023/07/10 10:01:30;;;;;;;11.20;10.30;;;23.60;99.90;;;;;;5035430;28;20181;-44
2023/07/10 10:03:57;;;;;;;11.27;10.37;;;23.70;99.90;;;;;;5035178;28;20169;-46
2023/07/10 10:06:25;;;;;;;9.13;8.43;;;23.70;99.90;;;;;;5053187;28;20166;-43
2023/07/10 10:08:53;;;;;;;8.13;7.23;;;23.80;99.90;;;;;;5051069;28;20161;-45
2023/07/10 10:11:37;;;;;;;6.27;5.47;;;23.80;99.90;;;;;;5035979;28;20166;-44
2023/07/10 10:14:08;;;;;;;6.07;4.70;;;23.80;99.90;;;;;;5021110;28;20180;-45
2023/07/10 10:16:54;;;;;;;6.20;5.60;;;23.80;99.90;;;;;;5035883;28;20654;-43
2023/07/10 10:19:33;;;;;;;7.20;6.60;;;23.90;99.90;;;;;;5017662;28;20757;-43
2023/07/10 10:21:59;;;;;;;11.63;10.93;;;24.00;99.90;;;;;;5035453;28;20173;-46
2023/07/10 10:24:27;;;;;;;102.83;97.60;;;24.00;99.90;;;;;;5034691;28;20177;-44
2023/07/10 10:27:31;;;;;;;54.97;52.17;;;24.00;99.90;;;;;;5034689;28;20235;-47
2023/07/10 10:30:19;;;;;;;25.20;23.83;;;24.00;99.90;;;;;;5035267;28;20197;-45
2023/07/10 10:33:20;;;;;;;22.00;20.63;;;24.10;99.90;;;;;;5036733;28;20190;-48
2023/07/10 10:36:00;;;;;;;12.63;11.67;;;24.10;99.90;;;;;;5036276;28;20213;-45
2023/07/10 10:38:58;;;;;;;25.97;24.33;;;24.20;99.90;;;;;;5035728;28;20234;-46
2023/07/10 10:41:41;;;;;;;34.33;32.40;;;24.20;99.90;;;;;;5035446;28;20513;-45
2023/07/10 10:44:35;;;;;;;33.83;32.00;;;24.30;99.90;;;;;;5050669;28;20174;-44
2023/07/10 10:47:40;;;;;;;27.40;25.93;;;24.30;99.90;;;;;;5032789;28;20226;-44
2023/07/10 10:50:35;;;;;;;27.57;25.87;;;24.40;99.90;;;;;;5049330;28;20252;-44
2023/07/10 10:53:25;;;;;;;32.33;30.50;;;24.40;99.90;;;;;;5033013;28;20667;-43
2023/07/10 10:56:25;;;;;;;39.07;36.97;;;24.50;99.90;;;;;;5035870;28;20271;-45
2023/07/10 10:59:02;;;;;;;37.97;35.87;;;24.50;99.90;;;;;;5036176;28;20178;-46
2023/07/10 11:01:53;;;;;;;47.10;44.60;;;24.50;99.90;;;;;;5052320;28;20161;-43
2023/07/10 11:04:46;;;;;;;71.80;68.17;;;24.50;99.90;;;;;;5034764;28;20184;-45
2023/07/10 11:07:18;;;;;;;91.60;86.75;;;24.50;99.90;;;;;;5034936;28;20173;-47
2023/07/10 11:09:47;;;;;;;94.30;89.20;;;24.50;99.90;;;;;;5035294;28;20170;-49
2023/07/10 11:12:20;;;;;;;104.53;99.23;;;24.50;99.90;;;;;;5035173;28;20176;-50
2023/07/10 11:14:49;;;;;;;113.43;107.27;;;24.40;99.90;;;;;;5035401;28;20204;-48
2023/07/10 11:17:15;;;;;;;110.43;104.73;;;24.40;99.90;;;;;;5035248;28;20169;-47
2023/07/10 11:19:43;;;;;;;108.23;102.70;;;24.30;99.90;;;;;;5035909;28;20468;-48
2023/07/10 11:22:21;;;;;;;91.73;86.97;;;24.30;99.90;;;;;;5055904;28;20197;-47
2023/07/10 11:24:48;;;;;;;124.00;117.43;;;24.40;99.90;;;;;;5023435;28;20182;-47
2023/07/10 11:27:42;;;;;;;102.50;96.93;;;24.40;99.90;;;;;;5038476;28;20174;-47
2023/07/10 11:30:12;;;;;;;94.60;89.80;;;24.40;99.90;;;;;;5034844;28;20193;-48
2023/07/10 11:33:03;;;;;;;75.60;71.65;;;24.50;99.90;;;;;;5035858;28;20180;-48
2023/07/10 11:35:30;;;;;;;73.33;69.50;;;24.50;99.90;;;;;;5022860;28;20221;-49
2023/07/10 11:38:04;;;;;;;95.27;90.00;;;24.50;99.90;;;;;;5037602;28;20165;-45
2023/07/10 11:40:38;;;;;;;93.70;88.97;;;24.60;99.90;;;;;;5037356;28;20165;-45
2023/07/10 11:43:25;;;;;;;68.43;64.93;;;24.60;99.90;;;;;;5055074;28;20176;-44
2023/07/10 11:46:03;;;;;;;56.28;53.15;;;24.70;99.90;;;;;;5035711;28;20573;-44
2023/07/10 11:48:41;;;;;;;41.50;39.23;;;24.90;99.90;;;;;;5035757;28;20289;-45
2023/07/10 11:51:42;;;;;;;28.45;26.75;;;25.40;99.90;;;;;;5053619;28;20177;-45
2023/07/10 11:54:10;;;;;;;14.88;13.77;;;25.50;99.90;;;;;;4971291;28;20239;-44
2023/07/10 11:56:37;;;;;;;12.02;11.25;;;25.40;99.90;;;;;;5038074;28;20185;-45
2023/07/10 11:59:21;;;;;;;6.07;5.47;;;25.40;99.90;;;;;;5034576;28;20204;-45
2023/07/10 12:01:48;;;;;;;6.32;4.82;;;25.40;99.90;;;;;;5053257;28;20235;-44
2023/07/10 12:04:15;;;;;;;10.60;9.68;;;25.50;99.90;;;;;;5035143;28;20399;-44
2023/07/10 12:06:45;;;;;;;12.55;11.65;;;25.70;99.90;;;;;;5035895;28;20797;-45
2023/07/10 12:09:12;;;;;;;5.80;4.35;;;25.80;99.90;;;;;;5055180;28;20170;-44
2023/07/10 12:11:40;;;;;;;4.80;4.22;;;25.70;99.90;;;;;;5037165;28;20173;-45
2023/07/10 12:14:13;;;;;;;6.03;5.45;;;26.00;99.90;;;;;;5035984;28;20169;-45
2023/07/10 12:17:00;;;;;;;5.70;5.07;;;26.30;99.90;;;;;;5036462;28;20514;-45
2023/07/10 12:19:36;;;;;;;4.70;4.28;;;26.60;99.90;;;;;;5036483;28;20216;-44
2023/07/10 12:22:17;;;;;;;3.78;3.47;;;26.80;99.90;;;;;;5035093;28;20177;-46
2023/07/10 12:24:54;;;;;;;4.35;3.97;;;27.00;99.90;;;;;;5020095;28;20173;-45
2023/07/10 12:27:21;;;;;;;8.60;8.02;;;27.20;99.90;;;;;;5035471;28;20175;-45
2023/07/10 12:29:54;;;;;;;6.97;6.43;;;27.30;99.90;;;;;;5035194;28;20177;-46
2023/07/10 12:32:22;;;;;;;8.73;8.13;;;27.50;99.90;;;;;;5031835;28;20197;-45
2023/07/10 12:34:49;;;;;;;7.93;7.28;;;27.50;99.90;;;;;;5034653;28;20735;-45
2023/07/10 12:37:17;;;;;;;7.93;7.28;;;27.60;99.90;;;;;;5035379;28;20639;-45
2023/07/10 12:39:48;;;;;;;6.85;6.30;;;27.60;99.90;;;;;;5035964;28;20174;-42
2023/07/10 12:42:31;;;;;;;4.03;3.72;;;27.80;99.90;;;;;;5053802;28;20176;-45
2023/07/10 12:44:56;;;;;;;5.38;4.88;;;27.50;99.90;;;;;;5055290;28;20173;-45
2023/07/10 12:47:55;;;;;;;5.75;4.93;;;27.30;99.90;;;;;;5054587;28;20179;-48
2023/07/10 12:50:31;;;;;;;5.55;5.05;;;27.00;99.90;;;;;;4981702;28;20593;-46
2023/07/10 12:53:02;;;;;;;5.13;4.57;;;27.10;99.90;;;;;;5035883;28;20169;-46